Time;durP1;ratioP1;P1;durP2;ratioP2;P2;SDS_P1;SDS_P2;PMS_P1;PMS_P2;Temp;Humidity;BMP_temperature;BMP_pressure;BME280_temperature;BME280_humidity;BME280_pressure;Samples;Min_cycle;Max_cycle;Signal;HPM_P1;HPM_P2
2022/06/12 00:01:35;;;;;;;13.03;6.30;;;;;;;;;;1805525;78;21292;-81
2022/06/12 00:04:07;;;;;;;10.35;5.58;;;;;;;;;;1813377;78;21370;-82
2022/06/12 00:06:42;;;;;;;14.65;6.65;;;;;;;;;;1767963;80;21247;-82
2022/06/12 00:09:14;;;;;;;13.10;6.30;;;;;;;;;;1782524;78;21199;-83
2022/06/12 00:11:46;;;;;;;14.00;6.47;;;;;;;;;;1796373;78;21237;-82
2022/06/12 00:14:17;;;;;;;15.85;7.28;;;;;;;;;;1823819;77;21147;-82
2022/06/12 00:16:52;;;;;;;12.80;6.80;;;;;;;;;;1822811;76;21594;-83
2022/06/12 00:19:22;;;;;;;17.98;7.00;;;;;;;;;;1841396;77;21202;-82
2022/06/12 00:21:54;;;;;;;14.47;7.10;;;;;;;;;;1837945;77;21057;-83
2022/06/12 00:24:26;;;;;;;15.03;6.35;;;;;;;;;;1802032;77;21186;-82
2022/06/12 00:26:58;;;;;;;12.88;6.45;;;;;;;;;;1763434;80;21182;-82
2022/06/12 00:29:30;;;;;;;12.82;5.85;;;;;;;;;;1803615;78;21248;-82
2022/06/12 00:32:03;;;;;;;13.00;6.70;;;;;;;;;;1793959;79;21293;-82
2022/06/12 00:34:35;;;;;;;11.85;6.40;;;;;;;;;;1812866;79;21111;-82
2022/06/12 00:37:07;;;;;;;15.00;6.37;;;;;;;;;;1799585;79;21376;-80
2022/06/12 00:39:39;;;;;;;13.05;5.97;;;;;;;;;;1821616;77;21142;-82
2022/06/12 00:42:12;;;;;;;14.78;6.65;;;;;;;;;;1799239;79;21178;-82
2022/06/12 00:44:43;;;;;;;12.80;6.75;;;;;;;;;;1797894;79;21111;-82
2022/06/12 00:47:16;;;;;;;11.20;6.75;;;;;;;;;;1792878;77;21273;-83
2022/06/12 00:49:48;;;;;;;12.47;6.03;;;;;;;;;;1808607;79;21155;-82
2022/06/12 00:52:21;;;;;;;11.83;6.12;;;;;;;;;;1798198;79;21228;-82
2022/06/12 00:54:53;;;;;;;10.80;5.37;;;;;;;;;;1770097;80;21158;-81
2022/06/12 00:57:26;;;;;;;15.98;5.65;;;;;;;;;;1787890;78;21184;-83
2022/06/12 00:59:58;;;;;;;11.90;5.33;;;;;;;;;;1791592;79;21266;-82
2022/06/12 01:02:31;;;;;;;9.78;5.20;;;;;;;;;;1795506;79;21177;-82
2022/06/12 01:07:38;;;;;;;14.30;5.85;;;;;;;;;;1793613;78;21202;-81
2022/06/12 01:10:10;;;;;;;12.33;5.58;;;;;;;;;;1797228;79;21162;-82
2022/06/12 01:12:43;;;;;;;14.25;6.22;;;;;;;;;;1805528;79;21172;-81
2022/06/12 01:15:16;;;;;;;10.08;5.08;;;;;;;;;;1816320;77;21119;-81
2022/06/12 01:17:48;;;;;;;16.15;5.72;;;;;;;;;;1824129;77;21109;-81
2022/06/12 01:20:20;;;;;;;12.30;5.97;;;;;;;;;;1790071;79;21233;-81
2022/06/12 01:22:53;;;;;;;10.08;5.80;;;;;;;;;;1795876;78;21215;-81
2022/06/12 01:25:25;;;;;;;12.75;5.55;;;;;;;;;;1800265;78;21190;-82
2022/06/12 01:28:07;;;;;;;12.35;5.95;;;;;;;;;;1785029;79;21147;-83
2022/06/12 01:30:40;;;;;;;12.65;6.00;;;;;;;;;;1774238;79;21240;-81
2022/06/12 01:33:13;;;;;;;12.68;6.35;;;;;;;;;;1786064;79;21210;-82
2022/06/12 01:35:46;;;;;;;11.10;6.15;;;;;;;;;;1819715;77;21245;-82
2022/06/12 01:38:20;;;;;;;12.13;6.42;;;;;;;;;;1801440;77;21612;-82
2022/06/12 01:40:55;;;;;;;12.00;5.97;;;;;;;;;;1792537;79;21265;-84
2022/06/12 01:43:27;;;;;;;11.35;6.12;;;;;;;;;;1803663;79;21115;-83
2022/06/12 01:46:00;;;;;;;13.53;6.67;;;;;;;;;;1854852;76;21089;-83
2022/06/12 01:48:32;;;;;;;10.80;6.47;;;;;;;;;;1842434;76;21204;-82
2022/06/12 01:51:05;;;;;;;13.35;6.80;;;;;;;;;;1855431;76;21186;-82
2022/06/12 01:53:37;;;;;;;11.85;5.53;;;;;;;;;;1852647;76;21104;-82
2022/06/12 01:56:10;;;;;;;13.78;6.05;;;;;;;;;;1857025;77;21583;-82
2022/06/12 01:58:47;;;;;;;12.68;5.60;;;;;;;;;;1849062;76;21248;-84
2022/06/12 02:01:19;;;;;;;13.72;5.33;;;;;;;;;;1862089;76;21586;-83
2022/06/12 02:03:53;;;;;;;13.15;6.12;;;;;;;;;;1844345;76;21115;-83
2022/06/12 02:06:26;;;;;;;14.33;6.00;;;;;;;;;;1851743;76;21523;-83
2022/06/12 02:08:58;;;;;;;11.70;5.87;;;;;;;;;;1839246;76;21166;-83
2022/06/12 02:14:04;;;;;;;10.20;5.08;;;;;;;;;;1862885;76;21665;-83
2022/06/12 02:16:36;;;;;;;12.23;5.33;;;;;;;;;;1859403;76;21122;-83
2022/06/12 02:19:11;;;;;;;11.95;5.22;;;;;;;;;;1861396;76;21295;-84
2022/06/12 02:21:43;;;;;;;15.50;5.70;;;;;;;;;;1847112;76;21166;-85
2022/06/12 02:24:19;;;;;;;13.32;5.03;;;;;;;;;;1847194;76;21767;-82
2022/06/12 02:26:57;;;;;;;11.90;4.90;;;;;;;;;;1863247;76;21229;-84
2022/06/12 02:29:25;;;;;;;15.28;5.50;;;;;;;;;;1854248;76;21166;-83
2022/06/12 02:31:56;;;;;;;12.88;5.60;;;;;;;;;;1853765;76;21194;-84
2022/06/12 02:34:29;;;;;;;12.45;6.25;;;;;;;;;;1866888;76;21275;-83
2022/06/12 02:37:01;;;;;;;9.35;5.20;;;;;;;;;;1872399;76;21142;-84
2022/06/12 02:39:34;;;;;;;15.13;5.17;;;;;;;;;;1849231;76;21178;-86
2022/06/12 02:42:09;;;;;;;10.78;5.10;;;;;;;;;;1865169;76;21111;-83
2022/06/12 02:44:42;;;;;;;12.88;4.95;;;;;;;;;;1853266;76;21143;-82
2022/06/12 02:47:15;;;;;;;8.53;4.55;;;;;;;;;;1854106;76;21085;-82
2022/06/12 02:49:47;;;;;;;9.33;4.35;;;;;;;;;;1848617;76;21253;-82
2022/06/12 02:52:19;;;;;;;11.90;4.45;;;;;;;;;;1837686;76;21617;-83
2022/06/12 02:54:50;;;;;;;14.23;4.62;;;;;;;;;;1850611;76;21067;-83
2022/06/12 02:57:22;;;;;;;10.43;4.30;;;;;;;;;;1865690;76;21716;-82
2022/06/12 02:59:53;;;;;;;9.00;4.35;;;;;;;;;;1852223;76;21159;-84
2022/06/12 03:02:25;;;;;;;11.63;4.80;;;;;;;;;;1855368;76;21123;-82
2022/06/12 03:04:57;;;;;;;9.83;5.10;;;;;;;;;;1853109;76;21075;-81
2022/06/12 03:07:30;;;;;;;15.88;4.08;;;;;;;;;;1858089;76;21252;-83
2022/06/12 03:10:03;;;;;;;12.63;8.38;;;;;;;;;;1852487;76;21175;-83
2022/06/12 03:12:34;;;;;;;16.35;9.43;;;;;;;;;;1797531;79;21253;-82
2022/06/12 03:15:06;;;;;;;9.53;4.70;;;;;;;;;;1793743;79;21205;-82
2022/06/12 03:17:36;;;;;;;14.28;10.18;;;;;;;;;;1810604;77;21205;-83
2022/06/12 03:20:12;;;;;;;16.62;8.03;;;;;;;;;;1866089;76;21151;-82
2022/06/12 03:22:39;;;;;;;14.07;6.97;;;;;;;;;;1862012;76;21237;-81
2022/06/12 03:25:11;;;;;;;15.45;9.50;;;;;;;;;;1850176;76;21132;-82
2022/06/12 03:27:42;;;;;;;12.23;4.65;;;;;;;;;;1857606;76;21280;-83
2022/06/12 03:30:14;;;;;;;11.65;4.17;;;;;;;;;;1862688;76;21126;-83
2022/06/12 03:32:44;;;;;;;11.83;4.62;;;;;;;;;;1855413;76;21239;-81
2022/06/12 03:35:16;;;;;;;9.03;4.58;;;;;;;;;;1862793;76;21127;-82
2022/06/12 03:37:49;;;;;;;11.50;4.28;;;;;;;;;;1796106;79;21189;-83
2022/06/12 03:40:21;;;;;;;6.75;4.40;;;;;;;;;;1795619;79;21628;-81
2022/06/12 03:42:53;;;;;;;8.18;3.95;;;;;;;;;;1795046;79;21187;-83
2022/06/12 03:45:25;;;;;;;9.15;4.12;;;;;;;;;;1791788;79;21199;-84
2022/06/12 03:47:57;;;;;;;7.70;3.58;;;;;;;;;;1790283;78;21229;-81
2022/06/12 03:50:30;;;;;;;10.03;3.70;;;;;;;;;;1802241;78;21308;-82
2022/06/12 03:53:02;;;;;;;8.53;3.60;;;;;;;;;;1815333;77;21290;-84
2022/06/12 03:58:10;;;;;;;6.97;3.90;;;;;;;;;;1772280;79;21158;-83
2022/06/12 04:00:44;;;;;;;7.35;3.90;;;33.90;97.50;;;;;;1777149;79;21293;-81
2022/06/12 04:03:17;;;;;;;10.28;3.72;;;33.90;98.20;;;;;;1776930;80;21662;-81
2022/06/12 04:05:54;;;;;;;7.80;4.00;;;33.80;98.40;;;;;;1806346;77;21180;-84
2022/06/12 04:08:28;;;;;;;7.08;3.62;;;33.70;98.60;;;;;;1806395;76;21172;-82
2022/06/12 04:11:00;;;;;;;8.68;3.47;;;34.00;98.60;;;;;;1801094;75;21197;-85
2022/06/12 04:13:31;;;;;;;8.60;3.02;;;33.80;97.70;;;;;;1783268;77;21120;-83
2022/06/12 04:16:04;;;;;;;8.08;3.25;;;33.80;97.90;;;;;;1808176;77;21182;-84
2022/06/12 04:18:36;;;;;;;7.45;3.67;;;33.90;97.90;;;;;;1778933;77;21253;-85
2022/06/12 04:21:09;;;;;;;7.03;3.30;;;33.80;98.20;;;;;;1784360;77;21159;-85
2022/06/12 04:23:42;;;;;;;16.37;4.20;;;33.60;98.30;;;;;;1787524;77;21127;-85
2022/06/12 04:26:16;;;;;;;11.38;7.70;;;33.70;98.70;;;;;;1824549;76;21180;-83
2022/06/12 04:28:49;;;;;;;11.48;5.12;;;33.50;98.80;;;;;;1840533;77;21140;-82
2022/06/12 04:31:21;;;;;;;9.83;3.77;;;33.70;98.90;;;;;;1826050;77;21535;-84
2022/06/12 04:33:55;;;;;;;15.93;6.65;;;33.60;98.70;;;;;;1854543;76;21147;-83
2022/06/12 04:36:26;;;;;;;8.40;3.60;;;33.70;98.70;;;;;;1846391;77;21226;-84
2022/06/12 04:38:58;;;;;;;7.55;3.87;;;33.80;98.20;;;;;;1843034;77;21150;-84
2022/06/12 04:41:31;;;;;;;6.15;3.05;;;34.20;97.80;;;;;;1849056;77;21580;-84
2022/06/12 04:44:03;;;;;;;6.40;3.45;;;34.00;97.40;;;;;;1840059;76;21104;-84
2022/06/12 04:46:36;;;;;;;4.92;3.35;;;;;;;;;;1856921;76;21083;-84
2022/06/12 04:49:08;;;;;;;6.65;3.37;;;;;;;;;;1839374;77;21163;-83
2022/06/12 04:51:39;;;;;;;6.12;3.50;;;;;;;;;;1851952;77;21193;-81
2022/06/12 04:54:10;;;;;;;7.60;3.30;;;34.00;99.90;;;;;;1850657;77;21155;-83
2022/06/12 04:56:41;;;;;;;6.75;3.20;;;34.30;99.90;;;;;;1803066;79;21227;-83
2022/06/12 04:59:16;;;;;;;5.95;3.27;;;;;;;;;;1810191;79;21202;-83
2022/06/12 05:01:50;;;;;;;10.20;3.20;;;;;;;;;;1780756;79;21150;-83
2022/06/12 05:04:22;;;;;;;9.23;3.70;;;;;;;;;;1791728;78;21261;-83
2022/06/12 05:06:54;;;;;;;8.58;3.40;;;;;;;;;;1786338;79;21619;-82
2022/06/12 05:09:26;;;;;;;8.63;3.30;;;;;;;;;;1757061;81;21125;-83
2022/06/12 05:11:57;;;;;;;10.72;2.90;;;;;;;;;;1761179;80;21151;-82
2022/06/12 05:14:27;;;;;;;8.85;3.17;;;;;;;;;;1756993;81;21159;-83
2022/06/12 05:16:59;;;;;;;7.10;2.55;;;;;;;;;;1786783;79;21174;-83
2022/06/12 05:19:32;;;;;;;6.55;2.92;;;34.50;99.90;;;;;;1809605;78;21154;-83
2022/06/12 05:22:08;;;;;;;5.78;2.55;;;34.50;99.90;;;;;;1777009;80;21193;-83
2022/06/12 05:24:40;;;;;;;7.47;2.75;;;34.40;99.90;;;;;;1812448;77;21175;-83
2022/06/12 05:27:12;;;;;;;7.45;2.85;;;;;;;;;;1812963;77;21138;-83
2022/06/12 05:29:44;;;;;;;8.38;3.10;;;34.70;99.90;;;;;;1807257;77;21253;-84
2022/06/12 05:32:18;;;;;;;6.85;2.70;;;34.40;99.90;;;;;;1800656;77;21162;-84
2022/06/12 05:34:48;;;;;;;7.92;2.90;;;;;;;;;;1811602;77;21119;-84
2022/06/12 05:37:20;;;;;;;5.12;2.70;;;;;;;;;;1814926;77;21093;-83
2022/06/12 05:39:52;;;;;;;6.40;2.80;;;;;;;;;;1792780;79;21181;-83
2022/06/12 05:42:23;;;;;;;9.23;2.52;;;;;;;;;;1838360;76;21169;-83
2022/06/12 05:44:55;;;;;;;5.42;2.65;;;;;;;;;;1829756;77;21241;-83
2022/06/12 05:47:26;;;;;;;6.10;2.30;;;34.80;99.90;;;;;;1810872;78;21130;-83
2022/06/12 05:49:57;;;;;;;6.70;3.00;;;34.60;99.90;;;;;;1785695;79;21281;-82
2022/06/12 05:52:28;;;;;;;10.38;4.35;;;34.60;99.90;;;;;;1788812;79;21904;-83
2022/06/12 05:54:58;;;;;;;7.03;2.80;;;;;;;;;;1806886;79;21099;-82
2022/06/12 05:57:29;;;;;;;5.90;2.95;;;34.20;99.90;;;;;;1801570;78;21210;-84
2022/06/12 06:00:00;;;;;;;8.20;3.05;;;34.50;99.90;;;;;;1796766;79;21166;-84
2022/06/12 06:02:31;;;;;;;6.67;2.80;;;34.30;99.90;;;;;;1836762;77;21543;-84
2022/06/12 06:05:03;;;;;;;7.65;3.00;;;34.40;99.90;;;;;;1828102;77;21154;-83
2022/06/12 06:07:35;;;;;;;4.85;3.05;;;34.70;99.90;;;;;;1840683;76;21072;-83
2022/06/12 06:10:08;;;;;;;8.48;2.70;;;34.70;99.90;;;;;;1791653;79;21199;-84
2022/06/12 06:12:39;;;;;;;3.95;2.37;;;34.70;99.90;;;;;;1780265;78;21646;-83
2022/06/12 06:15:13;;;;;;;6.03;2.77;;;34.60;99.70;;;;;;1813341;79;21098;-83
2022/06/12 06:17:44;;;;;;;7.67;2.75;;;34.70;99.60;;;;;;1804078;79;21220;-83
2022/06/12 06:20:17;;;;;;;5.75;2.95;;;34.80;99.90;;;;;;1813373;79;21184;-82
2022/06/12 06:22:48;;;;;;;7.25;3.35;;;34.80;99.60;;;;;;1792480;77;21164;-83
2022/06/12 06:25:20;;;;;;;5.87;3.02;;;34.70;99.90;;;;;;1820217;77;21607;-83
2022/06/12 06:27:52;;;;;;;7.95;3.62;;;34.70;99.60;;;;;;1803129;77;21096;-82
2022/06/12 06:30:26;;;;;;;9.80;3.98;;;34.70;99.60;;;;;;1795788;79;21193;-83
2022/06/12 06:32:58;;;;;;;7.87;4.30;;;34.70;99.90;;;;;;1804128;79;21909;-82
2022/06/12 06:35:29;;;;;;;6.45;3.30;;;34.80;99.90;;;;;;1784588;79;21170;-82
2022/06/12 06:38:00;;;;;;;7.12;3.55;;;34.80;99.70;;;;;;1785643;79;21254;-83
2022/06/12 06:40:38;;;;;;;5.53;3.08;;;35.00;99.40;;;;;;1805790;77;21242;-83
2022/06/12 06:43:11;;;;;;;8.40;3.22;;;;;;;;;;1792938;79;21230;-83
2022/06/12 06:48:16;;;;;;;5.28;3.10;;;;;;;;;;1801320;79;21136;-82
2022/06/12 06:50:47;;;;;;;5.22;3.15;;;;;;;;;;1801709;79;21197;-82
2022/06/12 06:53:18;;;;;;;9.15;4.10;;;;;;;;;;1777057;80;21244;-82
2022/06/12 06:56:09;;;;;;;11.40;4.00;;;;;;;;;;1759828;81;21112;-81
2022/06/12 06:58:40;;;;;;;6.15;3.55;;;;;;;;;;1779304;80;21168;-83
2022/06/12 07:01:12;;;;;;;7.35;3.62;;;;;;;;;;1795055;79;21236;-83
2022/06/12 07:03:44;;;;;;;8.95;4.40;;;;;;;;;;1771608;79;21138;-83
2022/06/12 07:06:16;;;;;;;7.12;3.45;;;34.60;99.90;;;;;;1776875;80;21213;-83
2022/06/12 07:08:48;;;;;;;8.35;3.35;;;34.80;99.90;;;;;;1782859;79;21226;-83
2022/06/12 07:11:23;;;;;;;8.60;3.00;;;34.80;99.90;;;;;;1818144;79;21643;-83
2022/06/12 07:13:56;;;;;;;6.20;3.05;;;34.30;99.90;;;;;;1768447;80;21200;-84
2022/06/12 07:16:29;;;;;;;8.43;3.22;;;34.30;99.90;;;;;;1769213;80;21201;-83
2022/06/12 07:19:00;;;;;;;6.97;3.50;;;34.20;99.90;;;;;;1803441;79;21491;-83
2022/06/12 07:21:37;;;;;;;10.70;3.50;;;34.20;99.90;;;;;;1803950;78;21092;-84
2022/06/12 07:24:09;;;;;;;7.30;3.67;;;34.00;99.90;;;;;;1802695;78;21261;-83
2022/06/12 07:26:42;;;;;;;11.88;4.72;;;33.90;99.90;;;;;;1804787;78;21155;-82
2022/06/12 07:29:41;;;;;;;7.33;4.85;;;34.00;99.90;;;;;;1805494;77;21237;-82
2022/06/12 07:32:13;;;;;;;8.43;4.72;;;34.20;99.90;;;;;;1804631;78;21100;-82
2022/06/12 07:35:03;;;;;;;8.83;3.92;;;34.00;99.90;;;;;;1821766;78;21539;-84
2022/06/12 07:37:37;;;;;;;34.10;8.38;;;34.10;99.90;;;;;;1816960;78;21615;-83
2022/06/12 07:40:10;;;;;;;31.25;9.28;;;34.10;99.90;;;;;;1816478;79;21137;-83
2022/06/12 07:42:41;;;;;;;16.77;4.62;;;34.00;99.90;;;;;;1832183;77;21656;-84
2022/06/12 07:45:13;;;;;;;5.65;3.52;;;34.10;99.90;;;;;;1797772;78;21111;-84
2022/06/12 07:47:47;;;;;;;7.70;4.17;;;34.10;99.90;;;;;;1799841;78;21077;-84
2022/06/12 07:50:20;;;;;;;9.90;4.90;;;34.00;99.90;;;;;;1777691;80;22434;-83
2022/06/12 07:52:51;;;;;;;9.88;4.17;;;33.90;99.90;;;;;;1784092;79;21494;-83
2022/06/12 07:55:22;;;;;;;10.48;3.50;;;33.90;99.90;;;;;;1783441;79;21162;-83
2022/06/12 07:57:56;;;;;;;6.15;3.42;;;33.80;99.90;;;;;;1774845;80;21265;-83
2022/06/12 08:00:28;;;;;;;6.65;3.30;;;33.30;99.90;;;;;;1789125;78;21085;-83
2022/06/12 08:02:59;;;;;;;8.20;3.25;;;32.90;99.90;;;;;;1784806;77;21082;-83
2022/06/12 08:05:31;;;;;;;5.78;3.05;;;32.60;99.90;;;;;;1752388;81;21104;-81
2022/06/12 08:08:15;;;;;;;;;;;32.40;99.90;;;;;;1750620;81;21182;-83
2022/06/12 08:10:47;;;;;;;7.28;3.00;;;32.00;99.90;;;;;;1773649;79;20330;-82
2022/06/12 08:13:20;;;;;;;7.67;3.22;;;32.00;99.90;;;;;;1776622;80;21197;-81
2022/06/12 08:15:53;;;;;;;5.15;3.20;;;31.70;99.90;;;;;;1790383;80;21206;-82
2022/06/12 08:18:25;;;;;;;6.45;3.20;;;31.80;99.90;;;;;;1784743;80;21178;-82
2022/06/12 08:20:59;;;;;;;8.53;3.45;;;31.60;99.90;;;;;;1793851;78;21198;-83
2022/06/12 08:23:37;;;;;;;6.33;3.15;;;31.20;99.90;;;;;;1838159;76;21468;-83
2022/06/12 08:26:05;;;;;;;6.47;2.90;;;31.30;99.90;;;;;;1839699;76;21155;-83
2022/06/12 08:28:40;;;;;;;5.97;2.75;;;31.30;99.90;;;;;;1837810;76;21156;-81
2022/06/12 08:31:14;;;;;;;4.60;2.67;;;31.30;99.90;;;;;;1826685;77;21978;-84
2022/06/12 08:33:47;;;;;;;4.92;2.52;;;31.10;99.90;;;;;;1822590;77;21217;-82
2022/06/12 08:36:20;;;;;;;7.62;2.67;;;30.90;99.90;;;;;;1760959;80;21735;-81
2022/06/12 08:38:51;;;;;;;5.42;2.17;;;31.20;99.90;;;;;;1773548;80;21652;-82
2022/06/12 08:41:24;;;;;;;4.03;2.17;;;30.80;99.90;;;;;;1827482;76;21154;-82
2022/06/12 08:43:57;;;;;;;6.58;2.33;;;30.80;99.90;;;;;;1833987;76;21111;-79
2022/06/12 08:46:31;;;;;;;4.90;2.60;;;31.00;99.90;;;;;;1838182;76;21147;-80
2022/06/12 08:49:03;;;;;;;10.00;4.58;;;31.00;99.90;;;;;;1844251;76;21072;-81
2022/06/12 08:51:37;;;;;;;10.28;4.00;;;31.10;99.90;;;;;;1835544;77;21178;-82
2022/06/12 08:54:11;;;;;;;6.22;2.95;;;31.20;99.90;;;;;;1827320;77;21155;-80
2022/06/12 08:56:44;;;;;;;5.30;3.02;;;31.10;99.90;;;;;;1828732;77;21205;-82
2022/06/12 08:59:16;;;;;;;8.53;3.72;;;31.20;99.90;;;;;;1833478;77;21171;-82
2022/06/12 09:01:48;;;;;;;8.00;3.10;;;31.50;99.90;;;;;;1833727;76;21127;-82
2022/06/12 09:04:23;;;;;;;7.83;3.10;;;31.50;99.90;;;;;;1870246;76;21226;-82
2022/06/12 09:06:56;;;;;;;8.00;3.62;;;31.20;99.90;;;;;;1873320;74;21059;-82
2022/06/12 09:09:29;;;;;;;8.95;3.42;;;31.70;99.90;;;;;;1818373;77;21775;-83
2022/06/12 09:12:03;;;;;;;6.83;3.75;;;31.60;99.90;;;;;;1806739;78;21200;-83
2022/06/12 09:14:36;;;;;;;7.90;3.80;;;31.50;99.90;;;;;;1814441;77;21690;-82
2022/06/12 09:17:10;;;;;;;10.98;4.17;;;31.70;99.90;;;;;;1841093;76;21161;-83
2022/06/12 09:19:43;;;;;;;9.33;4.30;;;31.70;99.90;;;;;;1826160;76;21205;-82
2022/06/12 09:22:16;;;;;;;10.28;5.33;;;31.90;99.90;;;;;;1872158;76;21166;-82
2022/06/12 09:24:51;;;;;;;10.82;4.50;;;31.60;99.90;;;;;;1873596;76;21186;-81
2022/06/12 09:27:23;;;;;;;9.00;4.15;;;31.90;99.90;;;;;;1835180;77;21181;-83
2022/06/12 09:29:54;;;;;;;7.17;4.22;;;31.70;99.90;;;;;;1867942;76;21190;-82
2022/06/12 09:32:28;;;;;;;8.30;4.42;;;31.80;99.90;;;;;;1871754;76;21639;-82
2022/06/12 09:35:01;;;;;;;6.65;4.37;;;32.10;99.90;;;;;;1815018;77;21199;-81
2022/06/12 09:40:09;;;;;;;9.43;4.33;;;32.10;99.90;;;;;;1837721;77;21122;-81
2022/06/12 09:42:42;;;;;;;8.83;4.50;;;31.90;99.90;;;;;;1773872;79;21098;-82
2022/06/12 09:45:14;;;;;;;10.38;4.33;;;32.00;99.90;;;;;;1812816;79;21236;-82
2022/06/12 09:47:48;;;;;;;8.40;4.62;;;31.80;99.90;;;;;;1863893;76;21136;-83
2022/06/12 09:50:21;;;;;;;10.28;4.60;;;31.60;99.90;;;;;;1868129;76;21138;-84
2022/06/12 09:52:55;;;;;;;10.05;4.95;;;31.60;99.90;;;;;;1869401;76;21161;-83
2022/06/12 09:55:28;;;;;;;7.15;4.22;;;31.70;99.90;;;;;;1866940;76;21171;-83
2022/06/12 09:58:04;;;;;;;7.62;4.05;;;31.70;99.90;;;;;;1882408;76;21130;-84
2022/06/12 10:00:37;;;;;;;9.93;5.28;;;31.90;99.90;;;;;;1831005;77;21300;-84
2022/06/12 10:03:10;;;;;;;9.50;4.87;;;31.70;99.90;;;;;;1810231;77;21205;-81
2022/06/12 10:05:43;;;;;;;11.05;5.15;;;32.30;99.90;;;;;;1768693;79;21159;-81
2022/06/12 10:08:18;;;;;;;;;;;31.90;99.90;;;;;;1786840;78;21683;-82
2022/06/12 10:10:49;;;;;;;11.20;4.80;;;32.40;99.90;;;;;;1757253;80;20237;-83
2022/06/12 10:13:23;;;;;;;10.88;5.05;;;32.00;99.90;;;;;;1784237;80;21201;-83
2022/06/12 10:15:56;;;;;;;9.18;4.85;;;32.20;99.90;;;;;;1761050;80;21599;-85
2022/06/12 10:18:32;;;;;;;14.25;5.45;;;32.20;99.90;;;;;;1781015;80;21242;-84
2022/06/12 10:21:05;;;;;;;13.70;5.50;;;32.30;99.90;;;;;;1767321;80;21151;-82
2022/06/12 10:23:36;;;;;;;15.30;4.85;;;32.50;99.90;;;;;;1784372;79;21601;-84
2022/06/12 10:26:10;;;;;;;11.22;4.80;;;32.30;99.90;;;;;;1793754;80;21162;-83
2022/06/12 10:28:41;;;;;;;7.50;4.15;;;32.40;99.90;;;;;;1779321;79;21163;-83
2022/06/12 10:31:11;;;;;;;12.00;4.87;;;32.20;99.90;;;;;;1775962;80;21082;-84
2022/06/12 10:33:42;;;;;;;12.95;4.60;;;32.20;99.90;;;;;;1820129;78;21209;-85
2022/06/12 10:36:16;;;;;;;9.95;4.62;;;32.30;99.90;;;;;;1824563;78;21094;-83
2022/06/12 10:38:47;;;;;;;10.93;5.67;;;32.30;99.90;;;;;;1828068;77;21119;-84
2022/06/12 10:41:20;;;;;;;10.85;5.50;;;32.20;99.90;;;;;;1832159;77;21052;-83
2022/06/12 10:43:53;;;;;;;8.73;5.05;;;32.30;99.90;;;;;;1826371;77;21141;-82
2022/06/12 10:46:27;;;;;;;8.83;5.37;;;32.10;99.90;;;;;;1820629;77;21192;-85
2022/06/12 10:49:01;;;;;;;9.03;4.92;;;32.10;99.90;;;;;;1835027;77;21128;-85
2022/06/12 10:51:35;;;;;;;10.78;4.50;;;31.90;99.90;;;;;;1822630;77;21165;-85
2022/06/12 10:54:09;;;;;;;9.93;4.50;;;32.00;99.90;;;;;;1827055;76;21143;-84
2022/06/12 10:56:41;;;;;;;9.58;5.10;;;32.00;99.90;;;;;;1832487;77;21372;-84
2022/06/12 10:59:14;;;;;;;8.18;4.95;;;31.80;99.90;;;;;;1820176;77;21606;-82
2022/06/12 11:01:47;;;;;;;8.78;4.72;;;31.70;99.90;;;;;;1810524;78;21177;-83
2022/06/12 11:04:23;;;;;;;8.23;4.55;;;31.80;99.90;;;;;;1825140;77;22047;-83
2022/06/12 11:06:56;;;;;;;7.97;4.55;;;32.00;99.90;;;;;;1836876;77;21140;-84
2022/06/12 11:09:30;;;;;;;8.73;4.40;;;31.60;99.90;;;;;;1840378;76;21081;-82
2022/06/12 11:12:03;;;;;;;8.88;4.72;;;31.60;99.90;;;;;;1845821;77;21155;-83
2022/06/12 11:14:37;;;;;;;8.75;4.00;;;31.80;99.90;;;;;;1845026;77;21258;-83
2022/06/12 11:17:10;;;;;;;7.65;3.80;;;31.70;99.90;;;;;;1861150;76;22034;-82
2022/06/12 11:19:46;;;;;;;6.53;4.10;;;31.40;99.90;;;;;;1839588;77;21151;-82
2022/06/12 11:22:18;;;;;;;9.40;4.42;;;31.40;99.90;;;;;;1838180;77;21169;-82
2022/06/12 11:24:52;;;;;;;8.43;3.72;;;31.50;99.90;;;;;;1850191;76;21144;-81
2022/06/12 11:27:28;;;;;;;8.75;3.55;;;31.60;99.90;;;;;;1862318;76;21158;-83
2022/06/12 11:30:02;;;;;;;;;;;31.30;99.90;;;;;;1849479;76;21170;-84
2022/06/12 11:32:39;;;;;;;8.10;3.40;;;31.30;99.90;;;;;;1847998;77;20181;-83
2022/06/12 11:35:15;;;;;;;5.65;3.08;;;31.40;99.90;;;;;;1844888;77;21183;-82
2022/06/12 11:37:51;;;;;;;8.20;3.17;;;31.30;99.90;;;;;;1845450;77;21258;-83
2022/06/12 11:40:24;;;;;;;6.65;3.45;;;31.40;99.90;;;;;;1841895;76;21232;-83
2022/06/12 11:42:57;;;;;;;6.28;3.45;;;31.20;99.90;;;;;;1815965;78;21168;-81
2022/06/12 11:45:32;;;;;;;11.97;6.97;;;31.30;99.90;;;;;;1822995;76;21175;-82
2022/06/12 11:48:03;;;;;;;14.00;7.95;;;31.40;99.90;;;;;;1824559;77;21210;-82
2022/06/12 11:50:37;;;;;;;9.60;5.05;;;31.50;99.90;;;;;;1819233;77;21082;-84
2022/06/12 11:53:10;;;;;;;8.68;4.00;;;31.30;99.90;;;;;;1824500;78;21160;-82
2022/06/12 11:55:44;;;;;;;7.92;4.78;;;31.60;99.90;;;;;;1823794;78;21227;-82
2022/06/12 11:58:18;;;;;;;13.03;5.25;;;31.30;99.90;;;;;;1816284;77;21145;-81
2022/06/12 12:00:53;;;;;;;8.73;5.03;;;31.60;99.90;;;;;;1825180;78;21216;-81
2022/06/12 12:03:25;;;;;;;7.65;4.17;;;31.60;99.90;;;;;;1831852;77;21631;-81
2022/06/12 12:06:00;;;;;;;8.40;4.87;;;31.40;99.90;;;;;;1841406;77;21651;-82
2022/06/12 12:08:33;;;;;;;13.05;5.20;;;31.60;99.90;;;;;;1855289;76;21060;-84
2022/06/12 12:11:07;;;;;;;10.95;5.55;;;31.80;99.90;;;;;;1813097;77;21212;-83
2022/06/12 12:13:42;;;;;;;;;;;31.80;99.90;;;;;;1824690;77;21187;-81
2022/06/12 12:16:15;;;;;;;13.75;6.45;;;31.60;99.90;;;;;;1839358;77;20137;-84
2022/06/12 12:18:49;;;;;;;13.58;6.65;;;31.50;99.90;;;;;;1841912;76;21873;-82
2022/06/12 12:21:22;;;;;;;14.47;8.23;;;31.70;99.90;;;;;;1833883;76;21132;-84
2022/06/12 12:23:53;;;;;;;16.40;7.80;;;31.60;99.90;;;;;;1854163;76;21101;-82
2022/06/12 12:26:28;;;;;;;15.85;8.53;;;31.70;99.90;;;;;;1839614;76;21180;-82
2022/06/12 12:29:01;;;;;;;18.80;8.65;;;31.90;99.90;;;;;;1843094;76;21100;-81
2022/06/12 12:31:33;;;;;;;16.15;9.08;;;31.90;99.90;;;;;;1849033;76;21146;-81
2022/06/12 12:34:07;;;;;;;15.40;8.78;;;31.90;99.90;;;;;;1829068;77;21117;-84
2022/06/12 12:41:51;;;;;;;15.63;8.63;;;31.70;99.90;;;;;;1816857;77;21158;-82
2022/06/12 12:44:24;;;;;;;19.90;9.83;;;31.70;99.90;;;;;;1843167;77;21241;-83
2022/06/12 12:46:57;;;;;;;19.27;10.08;;;31.90;99.90;;;;;;1830731;77;21115;-83
2022/06/12 12:49:34;;;;;;;19.92;10.85;;;31.70;99.90;;;;;;1832976;77;21150;-82
2022/06/12 12:52:05;;;;;;;;;;;31.50;99.90;;;;;;1842506;76;21133;-83
2022/06/12 12:54:38;;;;;;;18.85;10.85;;;31.50;99.90;;;;;;1838237;76;20250;-83
2022/06/12 12:57:09;;;;;;;18.95;10.32;;;31.50;99.90;;;;;;1850250;76;21171;-82
2022/06/12 12:59:43;;;;;;;20.00;10.48;;;31.50;99.90;;;;;;1841779;76;21236;-82
2022/06/12 13:02:18;;;;;;;16.93;10.15;;;31.70;99.90;;;;;;1861059;75;21666;-83
2022/06/12 13:04:52;;;;;;;16.57;10.53;;;31.40;99.90;;;;;;1842840;76;21194;-83
2022/06/12 13:07:28;;;;;;;25.30;13.50;;;31.40;99.90;;;;;;1848687;76;21605;-82
2022/06/12 13:10:02;;;;;;;;;;;31.50;99.90;;;;;;1843446;76;21133;-83
2022/06/12 13:12:38;;;;;;;23.57;14.55;;;31.70;99.90;;;;;;1853008;76;20444;-82
2022/06/12 13:15:15;;;;;;;21.55;13.75;;;31.80;99.90;;;;;;1860145;76;21228;-82
2022/06/12 13:17:53;;;;;;;23.03;14.50;;;31.50;99.90;;;;;;1851359;76;21696;-82
2022/06/12 13:20:25;;;;;;;19.17;13.78;;;31.30;99.90;;;;;;1865718;76;21166;-83
2022/06/12 13:23:00;;;;;;;21.10;12.75;;;31.40;99.90;;;;;;1863708;76;21186;-84
2022/06/12 13:25:33;;;;;;;19.05;12.82;;;31.40;99.90;;;;;;1863536;76;21134;-82
2022/06/12 13:28:08;;;;;;;23.45;13.22;;;31.30;99.90;;;;;;1875656;76;21194;-83
2022/06/12 13:30:42;;;;;;;22.50;12.15;;;31.40;99.90;;;;;;1835175;77;21198;-82
2022/06/12 13:33:20;;;;;;;18.45;12.23;;;31.50;99.90;;;;;;1789496;79;21188;-83
2022/06/12 13:35:56;;;;;;;21.17;13.50;;;31.60;99.90;;;;;;1782167;79;21172;-82
2022/06/12 13:38:33;;;;;;;20.80;13.18;;;31.30;99.90;;;;;;1798796;78;21174;-84
2022/06/12 13:41:02;;;;;;;;;;;31.20;99.90;;;;;;1814766;78;21212;-83
2022/06/12 13:43:55;;;;;;;23.92;13.83;;;31.30;99.90;;;;;;1808938;78;20230;-83
2022/06/12 13:46:40;;;;;;;20.48;12.58;;;31.30;99.90;;;;;;1794140;78;21167;-81
2022/06/12 13:49:14;;;;;;;24.10;13.03;;;31.60;99.90;;;;;;1804112;78;21096;-82
2022/06/12 13:51:49;;;;;;;22.58;12.75;;;31.30;99.90;;;;;;1802187;78;21147;-82
2022/06/12 13:54:22;;;;;;;20.75;12.18;;;31.20;99.90;;;;;;1800965;78;21186;-84
2022/06/12 13:56:56;;;;;;;18.17;11.70;;;31.30;99.90;;;;;;1857336;75;21161;-83
2022/06/12 13:59:43;;;;;;;;;;;;;;;;;;;;;
2022/06/12 14:02:28;;;;;;;15.93;10.82;;;31.50;99.90;;;;;;1841111;76;21215;-83
2022/06/12 14:05:07;;;;;;;18.67;11.95;;;31.50;99.90;;;;;;1849006;76;21231;-82
2022/06/12 14:07:55;;;;;;;;;;;31.20;99.90;;;;;;1850662;76;21241;-82
2022/06/12 14:10:27;;;;;;;23.20;11.48;;;31.20;99.90;;;;;;1856890;76;20252;-82
2022/06/12 14:13:01;;;;;;;16.60;10.30;;;31.20;99.90;;;;;;1829818;77;21106;-82